sensor_id;sensor_type;location;lat;lon;timestamp;P1;durP1;ratioP1;P2;durP2;ratioP2
16179;SDS011;8196;49.428;10.906;2022-09-09T00:00:40;2.43;;;1.80;;
16179;SDS011;8196;49.428;10.906;2022-09-09T00:03:12;3.08;;;1.88;;
16179;SDS011;8196;49.428;10.906;2022-09-09T00:05:43;3.70;;;1.98;;
16179;SDS011;8196;49.428;10.906;2022-09-09T00:08:19;2.25;;;1.70;;
16179;SDS011;8196;49.428;10.906;2022-09-09T00:10:48;3.30;;;1.85;;
16179;SDS011;8196;49.428;10.906;2022-09-09T00:13:22;4.50;;;2.13;;
16179;SDS011;8196;49.428;10.906;2022-09-09T00:18:46;3.67;;;2.30;;
16179;SDS011;8196;49.428;10.906;2022-09-09T00:21:16;3.70;;;2.40;;
16179;SDS011;8196;49.428;10.906;2022-09-09T00:23:45;3.83;;;2.00;;
16179;SDS011;8196;49.428;10.906;2022-09-09T00:26:27;3.63;;;2.30;;
16179;SDS011;8196;49.428;10.906;2022-09-09T00:29:00;3.40;;;2.30;;
16179;SDS011;8196;49.428;10.906;2022-09-09T00:31:36;3.13;;;1.90;;
16179;SDS011;8196;49.428;10.906;2022-09-09T00:34:07;2.47;;;1.70;;
16179;SDS011;8196;49.428;10.906;2022-09-09T00:36:37;4.07;;;2.30;;
16179;SDS011;8196;49.428;10.906;2022-09-09T00:39:04;3.38;;;2.08;;
16179;SDS011;8196;49.428;10.906;2022-09-09T00:44:02;2.58;;;1.80;;
16179;SDS011;8196;49.428;10.906;2022-09-09T00:56:33;3.37;;;2.10;;
16179;SDS011;8196;49.428;10.906;2022-09-09T01:01:38;3.40;;;1.90;;
16179;SDS011;8196;49.428;10.906;2022-09-09T01:04:08;4.40;;;2.47;;
16179;SDS011;8196;49.428;10.906;2022-09-09T01:06:42;3.40;;;2.43;;
16179;SDS011;8196;49.428;10.906;2022-09-09T01:16:53;4.22;;;2.20;;
16179;SDS011;8196;49.428;10.906;2022-09-09T01:19:27;4.65;;;2.75;;
16179;SDS011;8196;49.428;10.906;2022-09-09T01:22:02;4.88;;;2.95;;
16179;SDS011;8196;49.428;10.906;2022-09-09T01:24:33;5.70;;;2.85;;
16179;SDS011;8196;49.428;10.906;2022-09-09T01:27:02;3.15;;;2.10;;
16179;SDS011;8196;49.428;10.906;2022-09-09T01:29:30;3.35;;;2.50;;
16179;SDS011;8196;49.428;10.906;2022-09-09T01:31:58;4.47;;;2.33;;
16179;SDS011;8196;49.428;10.906;2022-09-09T01:34:29;3.20;;;2.27;;
16179;SDS011;8196;49.428;10.906;2022-09-09T01:37:06;3.10;;;2.50;;
16179;SDS011;8196;49.428;10.906;2022-09-09T01:39:34;3.65;;;2.30;;
16179;SDS011;8196;49.428;10.906;2022-09-09T01:42:02;3.27;;;2.40;;
16179;SDS011;8196;49.428;10.906;2022-09-09T01:44:30;4.10;;;2.38;;
16179;SDS011;8196;49.428;10.906;2022-09-09T01:46:57;3.60;;;2.40;;
16179;SDS011;8196;49.428;10.906;2022-09-09T01:49:25;3.47;;;2.25;;
16179;SDS011;8196;49.428;10.906;2022-09-09T01:51:53;4.00;;;2.10;;
16179;SDS011;8196;49.428;10.906;2022-09-09T01:54:20;2.63;;;2.40;;
16179;SDS011;8196;49.428;10.906;2022-09-09T02:02:08;3.57;;;2.47;;
16179;SDS011;8196;49.428;10.906;2022-09-09T02:07:03;4.30;;;2.58;;
16179;SDS011;8196;49.428;10.906;2022-09-09T02:09:32;2.97;;;2.03;;
16179;SDS011;8196;49.428;10.906;2022-09-09T02:12:02;3.20;;;2.20;;
16179;SDS011;8196;49.428;10.906;2022-09-09T02:14:37;3.08;;;2.05;;
16179;SDS011;8196;49.428;10.906;2022-09-09T02:17:08;2.60;;;2.03;;
16179;SDS011;8196;49.428;10.906;2022-09-09T02:22:03;3.22;;;2.13;;
16179;SDS011;8196;49.428;10.906;2022-09-09T02:24:32;3.30;;;2.23;;
16179;SDS011;8196;49.428;10.906;2022-09-09T02:27:00;2.55;;;2.00;;
16179;SDS011;8196;49.428;10.906;2022-09-09T02:29:30;3.53;;;2.20;;
16179;SDS011;8196;49.428;10.906;2022-09-09T02:31:59;4.05;;;2.03;;
16179;SDS011;8196;49.428;10.906;2022-09-09T02:34:29;3.83;;;2.30;;
16179;SDS011;8196;49.428;10.906;2022-09-09T02:36:58;3.00;;;2.00;;
16179;SDS011;8196;49.428;10.906;2022-09-09T02:39:26;3.72;;;2.10;;
16179;SDS011;8196;49.428;10.906;2022-09-09T02:41:53;2.77;;;2.30;;
16179;SDS011;8196;49.428;10.906;2022-09-09T02:44:20;2.58;;;2.20;;
16179;SDS011;8196;49.428;10.906;2022-09-09T02:47:00;2.83;;;2.20;;
16179;SDS011;8196;49.428;10.906;2022-09-09T02:49:59;2.47;;;1.95;;
16179;SDS011;8196;49.428;10.906;2022-09-09T02:52:32;2.95;;;1.90;;
16179;SDS011;8196;49.428;10.906;2022-09-09T02:55:04;3.08;;;2.03;;
16179;SDS011;8196;49.428;10.906;2022-09-09T02:57:31;3.03;;;2.00;;
16179;SDS011;8196;49.428;10.906;2022-09-09T03:00:00;4.07;;;1.95;;
16179;SDS011;8196;49.428;10.906;2022-09-09T03:02:27;2.25;;;2.00;;
16179;SDS011;8196;49.428;10.906;2022-09-09T03:04:54;3.38;;;2.08;;
16179;SDS011;8196;49.428;10.906;2022-09-09T03:07:22;5.50;;;2.30;;
16179;SDS011;8196;49.428;10.906;2022-09-09T03:09:49;4.50;;;1.80;;
16179;SDS011;8196;49.428;10.906;2022-09-09T03:12:16;2.65;;;1.90;;
16179;SDS011;8196;49.428;10.906;2022-09-09T03:14:43;3.60;;;1.70;;
16179;SDS011;8196;49.428;10.906;2022-09-09T03:17:12;3.50;;;1.77;;
16179;SDS011;8196;49.428;10.906;2022-09-09T03:19:39;2.17;;;1.60;;
16179;SDS011;8196;49.428;10.906;2022-09-09T03:22:06;4.77;;;1.80;;
16179;SDS011;8196;49.428;10.906;2022-09-09T03:24:33;4.35;;;1.95;;
16179;SDS011;8196;49.428;10.906;2022-09-09T03:27:00;2.35;;;2.00;;
16179;SDS011;8196;49.428;10.906;2022-09-09T03:29:27;2.92;;;2.00;;
16179;SDS011;8196;49.428;10.906;2022-09-09T03:31:54;3.35;;;1.90;;
16179;SDS011;8196;49.428;10.906;2022-09-09T03:34:21;3.15;;;1.63;;
16179;SDS011;8196;49.428;10.906;2022-09-09T03:36:48;2.27;;;1.80;;
16179;SDS011;8196;49.428;10.906;2022-09-09T03:39:16;2.90;;;1.98;;
16179;SDS011;8196;49.428;10.906;2022-09-09T03:41:43;3.05;;;2.22;;
16179;SDS011;8196;49.428;10.906;2022-09-09T03:44:12;3.55;;;2.03;;
16179;SDS011;8196;49.428;10.906;2022-09-09T03:46:39;2.83;;;1.90;;
16179;SDS011;8196;49.428;10.906;2022-09-09T03:49:07;4.95;;;2.20;;
16179;SDS011;8196;49.428;10.906;2022-09-09T03:51:36;3.00;;;1.90;;
16179;SDS011;8196;49.428;10.906;2022-09-09T03:54:04;2.53;;;2.10;;
16179;SDS011;8196;49.428;10.906;2022-09-09T03:56:34;5.15;;;2.17;;
16179;SDS011;8196;49.428;10.906;2022-09-09T03:59:01;2.70;;;2.00;;
16179;SDS011;8196;49.428;10.906;2022-09-09T04:01:29;4.13;;;2.33;;
16179;SDS011;8196;49.428;10.906;2022-09-09T04:03:56;3.78;;;2.03;;
16179;SDS011;8196;49.428;10.906;2022-09-09T04:06:24;2.10;;;1.90;;
16179;SDS011;8196;49.428;10.906;2022-09-09T04:08:52;3.15;;;1.80;;
16179;SDS011;8196;49.428;10.906;2022-09-09T04:11:19;2.40;;;1.73;;
16179;SDS011;8196;49.428;10.906;2022-09-09T04:13:47;2.42;;;2.05;;
16179;SDS011;8196;49.428;10.906;2022-09-09T04:16:14;3.08;;;2.10;;
16179;SDS011;8196;49.428;10.906;2022-09-09T04:18:42;2.92;;;2.15;;
16179;SDS011;8196;49.428;10.906;2022-09-09T04:21:09;3.65;;;2.15;;
16179;SDS011;8196;49.428;10.906;2022-09-09T04:23:38;2.85;;;1.98;;
16179;SDS011;8196;49.428;10.906;2022-09-09T04:26:06;3.83;;;2.15;;
16179;SDS011;8196;49.428;10.906;2022-09-09T04:28:33;2.60;;;2.05;;
16179;SDS011;8196;49.428;10.906;2022-09-09T04:31:03;4.78;;;2.50;;
16179;SDS011;8196;49.428;10.906;2022-09-09T04:33:30;2.55;;;2.20;;
16179;SDS011;8196;49.428;10.906;2022-09-09T04:36:03;2.85;;;2.00;;
16179;SDS011;8196;49.428;10.906;2022-09-09T04:38:30;4.32;;;2.45;;
16179;SDS011;8196;49.428;10.906;2022-09-09T04:40:57;3.25;;;2.00;;
16179;SDS011;8196;49.428;10.906;2022-09-09T04:43:24;3.88;;;2.05;;
16179;SDS011;8196;49.428;10.906;2022-09-09T04:45:52;3.92;;;2.30;;
16179;SDS011;8196;49.428;10.906;2022-09-09T04:48:20;2.92;;;2.30;;
16179;SDS011;8196;49.428;10.906;2022-09-09T04:50:55;5.10;;;2.40;;
16179;SDS011;8196;49.428;10.906;2022-09-09T04:53:23;2.92;;;2.10;;
16179;SDS011;8196;49.428;10.906;2022-09-09T04:55:52;2.70;;;2.10;;
16179;SDS011;8196;49.428;10.906;2022-09-09T04:58:19;3.67;;;2.28;;
16179;SDS011;8196;49.428;10.906;2022-09-09T05:00:48;2.45;;;2.17;;
16179;SDS011;8196;49.428;10.906;2022-09-09T05:03:17;2.50;;;1.80;;
16179;SDS011;8196;49.428;10.906;2022-09-09T05:05:45;3.55;;;2.20;;
16179;SDS011;8196;49.428;10.906;2022-09-09T05:08:13;2.88;;;2.22;;
16179;SDS011;8196;49.428;10.906;2022-09-09T05:10:41;2.80;;;2.20;;
16179;SDS011;8196;49.428;10.906;2022-09-09T05:13:08;2.70;;;2.10;;
16179;SDS011;8196;49.428;10.906;2022-09-09T05:15:34;3.00;;;2.58;;
16179;SDS011;8196;49.428;10.906;2022-09-09T05:18:02;4.85;;;2.25;;
16179;SDS011;8196;49.428;10.906;2022-09-09T05:20:29;2.50;;;2.30;;
16179;SDS011;8196;49.428;10.906;2022-09-09T05:22:56;4.77;;;2.50;;
16179;SDS011;8196;49.428;10.906;2022-09-09T05:25:23;3.42;;;2.70;;
16179;SDS011;8196;49.428;10.906;2022-09-09T05:27:52;4.18;;;2.63;;
16179;SDS011;8196;49.428;10.906;2022-09-09T05:30:20;4.15;;;2.75;;
16179;SDS011;8196;49.428;10.906;2022-09-09T05:32:48;3.72;;;2.30;;
16179;SDS011;8196;49.428;10.906;2022-09-09T05:35:16;4.38;;;2.42;;
16179;SDS011;8196;49.428;10.906;2022-09-09T05:37:45;2.92;;;2.58;;
16179;SDS011;8196;49.428;10.906;2022-09-09T05:40:12;2.70;;;2.23;;
16179;SDS011;8196;49.428;10.906;2022-09-09T05:42:39;3.10;;;2.25;;
16179;SDS011;8196;49.428;10.906;2022-09-09T05:45:07;3.17;;;2.40;;
16179;SDS011;8196;49.428;10.906;2022-09-09T05:47:35;2.92;;;1.92;;
16179;SDS011;8196;49.428;10.906;2022-09-09T05:50:03;4.82;;;2.83;;
16179;SDS011;8196;49.428;10.906;2022-09-09T05:52:31;5.47;;;2.30;;
16179;SDS011;8196;49.428;10.906;2022-09-09T05:54:58;3.45;;;2.60;;
16179;SDS011;8196;49.428;10.906;2022-09-09T05:57:25;3.95;;;2.53;;
16179;SDS011;8196;49.428;10.906;2022-09-09T05:59:53;3.80;;;2.80;;
16179;SDS011;8196;49.428;10.906;2022-09-09T06:02:20;4.35;;;2.45;;
16179;SDS011;8196;49.428;10.906;2022-09-09T06:04:47;3.75;;;2.50;;
16179;SDS011;8196;49.428;10.906;2022-09-09T06:07:14;4.68;;;2.80;;
16179;SDS011;8196;49.428;10.906;2022-09-09T06:09:41;2.85;;;2.42;;
16179;SDS011;8196;49.428;10.906;2022-09-09T06:12:08;2.60;;;2.40;;
16179;SDS011;8196;49.428;10.906;2022-09-09T06:14:35;6.43;;;2.88;;
16179;SDS011;8196;49.428;10.906;2022-09-09T06:17:03;4.15;;;2.85;;
16179;SDS011;8196;49.428;10.906;2022-09-09T06:19:31;3.92;;;2.55;;
16179;SDS011;8196;49.428;10.906;2022-09-09T06:21:58;3.33;;;2.65;;
16179;SDS011;8196;49.428;10.906;2022-09-09T06:24:25;3.27;;;2.40;;
16179;SDS011;8196;49.428;10.906;2022-09-09T06:26:52;3.67;;;2.50;;
16179;SDS011;8196;49.428;10.906;2022-09-09T06:29:20;4.47;;;2.42;;
16179;SDS011;8196;49.428;10.906;2022-09-09T06:31:47;4.65;;;2.33;;
16179;SDS011;8196;49.428;10.906;2022-09-09T06:34:14;3.00;;;2.38;;
16179;SDS011;8196;49.428;10.906;2022-09-09T06:36:41;4.65;;;2.50;;
16179;SDS011;8196;49.428;10.906;2022-09-09T06:39:08;3.38;;;2.47;;
16179;SDS011;8196;49.428;10.906;2022-09-09T06:41:40;3.35;;;2.35;;
16179;SDS011;8196;49.428;10.906;2022-09-09T06:44:08;3.90;;;2.33;;
16179;SDS011;8196;49.428;10.906;2022-09-09T06:46:38;4.60;;;2.30;;
16179;SDS011;8196;49.428;10.906;2022-09-09T06:49:06;5.47;;;2.50;;
16179;SDS011;8196;49.428;10.906;2022-09-09T06:51:35;5.82;;;2.50;;
16179;SDS011;8196;49.428;10.906;2022-09-09T06:54:02;3.57;;;2.30;;
16179;SDS011;8196;49.428;10.906;2022-09-09T06:56:30;3.20;;;2.60;;
16179;SDS011;8196;49.428;10.906;2022-09-09T06:58:59;3.92;;;2.65;;
16179;SDS011;8196;49.428;10.906;2022-09-09T07:01:29;3.03;;;2.20;;
16179;SDS011;8196;49.428;10.906;2022-09-09T07:03:58;3.53;;;2.42;;
16179;SDS011;8196;49.428;10.906;2022-09-09T07:06:27;3.55;;;2.28;;
16179;SDS011;8196;49.428;10.906;2022-09-09T07:08:55;5.32;;;2.05;;
16179;SDS011;8196;49.428;10.906;2022-09-09T07:11:24;2.58;;;2.00;;
16179;SDS011;8196;49.428;10.906;2022-09-09T07:13:53;3.73;;;1.90;;
16179;SDS011;8196;49.428;10.906;2022-09-09T07:16:21;3.35;;;2.35;;
16179;SDS011;8196;49.428;10.906;2022-09-09T07:18:52;3.93;;;2.10;;
16179;SDS011;8196;49.428;10.906;2022-09-09T07:21:24;4.32;;;2.10;;
16179;SDS011;8196;49.428;10.906;2022-09-09T07:23:52;3.87;;;1.90;;
16179;SDS011;8196;49.428;10.906;2022-09-09T07:26:21;3.08;;;1.52;;
16179;SDS011;8196;49.428;10.906;2022-09-09T07:28:49;3.37;;;1.77;;
16179;SDS011;8196;49.428;10.906;2022-09-09T07:31:18;3.45;;;1.73;;
16179;SDS011;8196;49.428;10.906;2022-09-09T07:33:46;2.30;;;1.60;;
16179;SDS011;8196;49.428;10.906;2022-09-09T07:36:15;2.00;;;1.60;;
16179;SDS011;8196;49.428;10.906;2022-09-09T07:38:45;2.30;;;1.42;;
16179;SDS011;8196;49.428;10.906;2022-09-09T07:41:15;2.97;;;1.40;;
16179;SDS011;8196;49.428;10.906;2022-09-09T07:43:44;2.97;;;1.40;;
16179;SDS011;8196;49.428;10.906;2022-09-09T07:46:17;3.03;;;1.52;;
16179;SDS011;8196;49.428;10.906;2022-09-09T07:48:46;2.50;;;1.33;;
16179;SDS011;8196;49.428;10.906;2022-09-09T07:51:18;2.80;;;1.50;;
16179;SDS011;8196;49.428;10.906;2022-09-09T07:53:51;3.27;;;1.40;;
16179;SDS011;8196;49.428;10.906;2022-09-09T07:56:18;3.10;;;1.38;;
16179;SDS011;8196;49.428;10.906;2022-09-09T07:58:49;2.30;;;1.40;;
16179;SDS011;8196;49.428;10.906;2022-09-09T08:01:17;2.67;;;1.20;;
16179;SDS011;8196;49.428;10.906;2022-09-09T08:03:46;3.22;;;1.45;;
16179;SDS011;8196;49.428;10.906;2022-09-09T08:06:16;2.15;;;1.30;;
16179;SDS011;8196;49.428;10.906;2022-09-09T08:08:43;2.75;;;1.50;;
16179;SDS011;8196;49.428;10.906;2022-09-09T08:11:12;3.63;;;1.45;;
16179;SDS011;8196;49.428;10.906;2022-09-09T08:13:41;2.75;;;1.40;;
16179;SDS011;8196;49.428;10.906;2022-09-09T08:18:35;1.17;;;0.90;;
16179;SDS011;8196;49.428;10.906;2022-09-09T08:23:35;3.13;;;1.10;;
16179;SDS011;8196;49.428;10.906;2022-09-09T08:26:04;1.90;;;0.90;;
16179;SDS011;8196;49.428;10.906;2022-09-09T08:28:31;1.58;;;0.90;;
16179;SDS011;8196;49.428;10.906;2022-09-09T08:31:14;2.28;;;1.10;;
16179;SDS011;8196;49.428;10.906;2022-09-09T08:33:43;2.63;;;1.00;;
16179;SDS011;8196;49.428;10.906;2022-09-09T08:36:13;2.47;;;1.10;;
16179;SDS011;8196;49.428;10.906;2022-09-09T08:38:41;2.75;;;1.00;;
16179;SDS011;8196;49.428;10.906;2022-09-09T08:43:44;1.92;;;0.75;;
16179;SDS011;8196;49.428;10.906;2022-09-09T08:46:17;2.30;;;0.95;;
16179;SDS011;8196;49.428;10.906;2022-09-09T08:49:02;2.30;;;1.08;;
16179;SDS011;8196;49.428;10.906;2022-09-09T08:51:32;2.55;;;1.00;;
16179;SDS011;8196;49.428;10.906;2022-09-09T08:53:59;1.40;;;0.85;;
16179;SDS011;8196;49.428;10.906;2022-09-09T08:56:29;2.35;;;0.80;;
16179;SDS011;8196;49.428;10.906;2022-09-09T08:58:57;3.40;;;0.93;;
16179;SDS011;8196;49.428;10.906;2022-09-09T09:01:29;2.15;;;0.95;;
16179;SDS011;8196;49.428;10.906;2022-09-09T09:12:10;4.20;;;0.95;;
16179;SDS011;8196;49.428;10.906;2022-09-09T09:14:40;2.37;;;0.90;;
16179;SDS011;8196;49.428;10.906;2022-09-09T09:17:11;4.95;;;1.20;;
16179;SDS011;8196;49.428;10.906;2022-09-09T09:19:40;2.17;;;0.80;;
16179;SDS011;8196;49.428;10.906;2022-09-09T09:27:30;3.35;;;0.80;;
16179;SDS011;8196;49.428;10.906;2022-09-09T09:29:58;2.15;;;0.85;;
16179;SDS011;8196;49.428;10.906;2022-09-09T09:32:51;2.83;;;1.00;;
16179;SDS011;8196;49.428;10.906;2022-09-09T09:35:19;1.85;;;0.90;;
16179;SDS011;8196;49.428;10.906;2022-09-09T09:37:47;2.80;;;0.90;;
16179;SDS011;8196;49.428;10.906;2022-09-09T09:40:34;2.67;;;0.85;;
16179;SDS011;8196;49.428;10.906;2022-09-09T09:43:01;2.43;;;0.80;;
16179;SDS011;8196;49.428;10.906;2022-09-09T09:45:33;1.77;;;0.85;;
16179;SDS011;8196;49.428;10.906;2022-09-09T09:48:01;1.30;;;0.75;;
16179;SDS011;8196;49.428;10.906;2022-09-09T09:50:33;2.63;;;1.10;;
16179;SDS011;8196;49.428;10.906;2022-09-09T09:53:02;2.72;;;1.00;;
16179;SDS011;8196;49.428;10.906;2022-09-09T09:55:30;2.50;;;0.88;;
16179;SDS011;8196;49.428;10.906;2022-09-09T09:58:01;3.17;;;1.00;;
16179;SDS011;8196;49.428;10.906;2022-09-09T10:00:30;2.35;;;1.00;;
16179;SDS011;8196;49.428;10.906;2022-09-09T10:02:59;4.15;;;1.17;;
16179;SDS011;8196;49.428;10.906;2022-09-09T10:05:27;1.45;;;0.80;;
16179;SDS011;8196;49.428;10.906;2022-09-09T10:08:05;2.43;;;1.00;;
16179;SDS011;8196;49.428;10.906;2022-09-09T10:10:36;1.65;;;0.88;;
16179;SDS011;8196;49.428;10.906;2022-09-09T10:13:11;3.42;;;1.00;;
16179;SDS011;8196;49.428;10.906;2022-09-09T10:23:28;2.42;;;0.93;;
16179;SDS011;8196;49.428;10.906;2022-09-09T10:28:33;1.90;;;0.90;;
16179;SDS011;8196;49.428;10.906;2022-09-09T10:31:08;1.55;;;0.90;;
16179;SDS011;8196;49.428;10.906;2022-09-09T10:33:50;1.98;;;0.82;;
16179;SDS011;8196;49.428;10.906;2022-09-09T10:36:22;3.28;;;0.90;;
16179;SDS011;8196;49.428;10.906;2022-09-09T10:38:56;1.23;;;0.85;;
16179;SDS011;8196;49.428;10.906;2022-09-09T10:41:44;1.10;;;0.90;;
16179;SDS011;8196;49.428;10.906;2022-09-09T10:44:17;1.10;;;0.80;;
16179;SDS011;8196;49.428;10.906;2022-09-09T10:57:28;3.05;;;0.95;;
16179;SDS011;8196;49.428;10.906;2022-09-09T11:00:01;1.90;;;0.82;;
16179;SDS011;8196;49.428;10.906;2022-09-09T11:02:31;1.63;;;0.88;;
16179;SDS011;8196;49.428;10.906;2022-09-09T11:05:04;1.83;;;1.10;;
16179;SDS011;8196;49.428;10.906;2022-09-09T11:10:22;1.57;;;0.80;;
16179;SDS011;8196;49.428;10.906;2022-09-09T11:12:52;1.53;;;0.80;;
16179;SDS011;8196;49.428;10.906;2022-09-09T11:15:23;2.03;;;0.93;;
16179;SDS011;8196;49.428;10.906;2022-09-09T11:17:56;2.60;;;0.93;;
16179;SDS011;8196;49.428;10.906;2022-09-09T11:20:25;2.47;;;0.90;;
16179;SDS011;8196;49.428;10.906;2022-09-09T11:22:56;1.20;;;0.85;;
16179;SDS011;8196;49.428;10.906;2022-09-09T11:25:27;1.40;;;0.85;;
16179;SDS011;8196;49.428;10.906;2022-09-09T11:28:07;2.15;;;1.00;;
16179;SDS011;8196;49.428;10.906;2022-09-09T11:39:06;1.70;;;0.90;;
16179;SDS011;8196;49.428;10.906;2022-09-09T11:41:34;1.83;;;0.90;;
16179;SDS011;8196;49.428;10.906;2022-09-09T11:44:11;2.70;;;0.90;;
16179;SDS011;8196;49.428;10.906;2022-09-09T11:46:39;0.90;;;0.70;;
16179;SDS011;8196;49.428;10.906;2022-09-09T11:49:28;0.68;;;0.60;;
16179;SDS011;8196;49.428;10.906;2022-09-09T11:51:54;2.58;;;1.00;;
16179;SDS011;8196;49.428;10.906;2022-09-09T11:54:27;2.47;;;0.95;;
16179;SDS011;8196;49.428;10.906;2022-09-09T11:56:55;1.75;;;0.85;;
16179;SDS011;8196;49.428;10.906;2022-09-09T11:59:30;1.73;;;0.90;;
16179;SDS011;8196;49.428;10.906;2022-09-09T12:06:53;2.70;;;0.93;;
16179;SDS011;8196;49.428;10.906;2022-09-09T12:11:49;2.10;;;1.07;;
16179;SDS011;8196;49.428;10.906;2022-09-09T12:14:19;1.63;;;0.73;;
16179;SDS011;8196;49.428;10.906;2022-09-09T12:16:47;1.70;;;0.73;;
16179;SDS011;8196;49.428;10.906;2022-09-09T12:19:16;2.80;;;0.70;;
16179;SDS011;8196;49.428;10.906;2022-09-09T12:24:18;1.23;;;0.60;;
16179;SDS011;8196;49.428;10.906;2022-09-09T12:26:52;1.17;;;0.82;;
16179;SDS011;8196;49.428;10.906;2022-09-09T12:36:50;2.25;;;0.80;;
16179;SDS011;8196;49.428;10.906;2022-09-09T12:39:24;1.73;;;1.00;;
16179;SDS011;8196;49.428;10.906;2022-09-09T12:41:56;4.68;;;1.10;;
16179;SDS011;8196;49.428;10.906;2022-09-09T12:44:24;2.25;;;1.15;;
16179;SDS011;8196;49.428;10.906;2022-09-09T12:46:51;2.17;;;0.93;;
16179;SDS011;8196;49.428;10.906;2022-09-09T12:49:28;1.90;;;0.85;;
16179;SDS011;8196;49.428;10.906;2022-09-09T12:52:01;1.13;;;0.70;;
16179;SDS011;8196;49.428;10.906;2022-09-09T12:54:33;2.42;;;0.80;;
16179;SDS011;8196;49.428;10.906;2022-09-09T12:57:01;0.77;;;0.52;;
16179;SDS011;8196;49.428;10.906;2022-09-09T12:59:37;1.38;;;0.73;;
16179;SDS011;8196;49.428;10.906;2022-09-09T13:02:22;1.70;;;0.90;;
16179;SDS011;8196;49.428;10.906;2022-09-09T13:04:49;2.50;;;1.00;;
16179;SDS011;8196;49.428;10.906;2022-09-09T13:07:17;2.90;;;0.90;;
16179;SDS011;8196;49.428;10.906;2022-09-09T13:09:45;1.67;;;0.73;;
16179;SDS011;8196;49.428;10.906;2022-09-09T13:12:14;2.63;;;1.00;;
16179;SDS011;8196;49.428;10.906;2022-09-09T13:14:43;1.92;;;0.70;;
16179;SDS011;8196;49.428;10.906;2022-09-09T13:17:17;1.85;;;0.70;;
16179;SDS011;8196;49.428;10.906;2022-09-09T13:19:46;2.30;;;0.70;;
16179;SDS011;8196;49.428;10.906;2022-09-09T13:24:57;1.42;;;0.80;;
16179;SDS011;8196;49.428;10.906;2022-09-09T13:29:54;0.85;;;0.70;;
16179;SDS011;8196;49.428;10.906;2022-09-09T13:32:22;1.00;;;0.70;;
16179;SDS011;8196;49.428;10.906;2022-09-09T13:34:54;1.15;;;0.70;;
16179;SDS011;8196;49.428;10.906;2022-09-09T13:39:52;2.05;;;0.70;;
16179;SDS011;8196;49.428;10.906;2022-09-09T13:42:28;1.08;;;0.70;;
16179;SDS011;8196;49.428;10.906;2022-09-09T13:44:56;1.98;;;0.68;;
16179;SDS011;8196;49.428;10.906;2022-09-09T13:47:28;2.20;;;0.70;;
16179;SDS011;8196;49.428;10.906;2022-09-09T13:49:57;1.33;;;0.70;;
16179;SDS011;8196;49.428;10.906;2022-09-09T13:52:24;1.00;;;0.70;;
16179;SDS011;8196;49.428;10.906;2022-09-09T13:54:53;1.00;;;0.70;;
16179;SDS011;8196;49.428;10.906;2022-09-09T13:57:22;1.60;;;0.60;;
16179;SDS011;8196;49.428;10.906;2022-09-09T13:59:51;2.83;;;0.88;;
16179;SDS011;8196;49.428;10.906;2022-09-09T14:02:30;1.45;;;0.65;;
16179;SDS011;8196;49.428;10.906;2022-09-09T14:04:58;3.05;;;0.75;;
16179;SDS011;8196;49.428;10.906;2022-09-09T14:07:25;1.55;;;0.90;;
16179;SDS011;8196;49.428;10.906;2022-09-09T14:09:52;3.08;;;0.90;;
16179;SDS011;8196;49.428;10.906;2022-09-09T14:12:19;2.65;;;0.98;;
16179;SDS011;8196;49.428;10.906;2022-09-09T14:14:46;1.45;;;0.90;;
16179;SDS011;8196;49.428;10.906;2022-09-09T14:17:13;1.15;;;0.70;;
16179;SDS011;8196;49.428;10.906;2022-09-09T14:19:41;1.80;;;0.70;;
16179;SDS011;8196;49.428;10.906;2022-09-09T14:22:08;1.77;;;0.80;;
16179;SDS011;8196;49.428;10.906;2022-09-09T14:24:35;2.00;;;0.95;;
16179;SDS011;8196;49.428;10.906;2022-09-09T14:27:03;2.05;;;0.93;;
16179;SDS011;8196;49.428;10.906;2022-09-09T14:29:30;2.38;;;1.10;;
16179;SDS011;8196;49.428;10.906;2022-09-09T14:31:59;2.10;;;0.90;;
16179;SDS011;8196;49.428;10.906;2022-09-09T14:34:27;3.13;;;1.20;;
16179;SDS011;8196;49.428;10.906;2022-09-09T14:36:54;3.08;;;1.10;;
16179;SDS011;8196;49.428;10.906;2022-09-09T14:39:21;2.50;;;1.10;;
16179;SDS011;8196;49.428;10.906;2022-09-09T14:41:48;2.70;;;1.13;;
16179;SDS011;8196;49.428;10.906;2022-09-09T14:44:16;2.35;;;1.20;;
16179;SDS011;8196;49.428;10.906;2022-09-09T14:46:43;2.45;;;0.90;;
16179;SDS011;8196;49.428;10.906;2022-09-09T14:49:10;2.33;;;0.90;;
16179;SDS011;8196;49.428;10.906;2022-09-09T14:51:38;3.55;;;1.00;;
16179;SDS011;8196;49.428;10.906;2022-09-09T14:54:06;1.75;;;0.90;;
16179;SDS011;8196;49.428;10.906;2022-09-09T14:56:33;1.60;;;0.75;;
16179;SDS011;8196;49.428;10.906;2022-09-09T14:59:00;2.60;;;1.00;;
16179;SDS011;8196;49.428;10.906;2022-09-09T15:01:29;1.92;;;0.80;;
16179;SDS011;8196;49.428;10.906;2022-09-09T15:03:57;3.80;;;1.10;;
16179;SDS011;8196;49.428;10.906;2022-09-09T15:06:25;1.73;;;0.80;;
16179;SDS011;8196;49.428;10.906;2022-09-09T15:08:53;2.35;;;0.80;;
16179;SDS011;8196;49.428;10.906;2022-09-09T15:11:25;1.70;;;0.70;;
16179;SDS011;8196;49.428;10.906;2022-09-09T15:13:53;1.63;;;0.80;;
16179;SDS011;8196;49.428;10.906;2022-09-09T15:16:21;1.65;;;0.60;;
16179;SDS011;8196;49.428;10.906;2022-09-09T15:18:51;2.00;;;0.80;;
16179;SDS011;8196;49.428;10.906;2022-09-09T15:21:19;1.85;;;0.60;;
16179;SDS011;8196;49.428;10.906;2022-09-09T15:23:47;2.08;;;0.70;;
16179;SDS011;8196;49.428;10.906;2022-09-09T15:26:14;2.63;;;0.90;;
16179;SDS011;8196;49.428;10.906;2022-09-09T15:28:43;2.10;;;0.80;;
16179;SDS011;8196;49.428;10.906;2022-09-09T15:31:11;1.70;;;0.70;;
16179;SDS011;8196;49.428;10.906;2022-09-09T15:33:40;2.85;;;0.80;;
16179;SDS011;8196;49.428;10.906;2022-09-09T15:36:16;1.15;;;0.70;;
16179;SDS011;8196;49.428;10.906;2022-09-09T15:38:43;0.80;;;0.60;;
16179;SDS011;8196;49.428;10.906;2022-09-09T15:41:12;0.70;;;0.63;;
16179;SDS011;8196;49.428;10.906;2022-09-09T15:43:42;0.60;;;0.52;;
16179;SDS011;8196;49.428;10.906;2022-09-09T15:48:44;2.13;;;0.60;;
16179;SDS011;8196;49.428;10.906;2022-09-09T15:51:15;0.65;;;0.50;;
16179;SDS011;8196;49.428;10.906;2022-09-09T15:54:02;0.90;;;0.50;;
16179;SDS011;8196;49.428;10.906;2022-09-09T15:56:29;0.98;;;0.50;;
16179;SDS011;8196;49.428;10.906;2022-09-09T15:58:57;0.80;;;0.40;;
16179;SDS011;8196;49.428;10.906;2022-09-09T16:01:25;0.68;;;0.50;;
16179;SDS011;8196;49.428;10.906;2022-09-09T16:03:53;0.98;;;0.50;;
16179;SDS011;8196;49.428;10.906;2022-09-09T16:06:21;0.95;;;0.50;;
16179;SDS011;8196;49.428;10.906;2022-09-09T16:08:50;0.93;;;0.60;;
16179;SDS011;8196;49.428;10.906;2022-09-09T16:11:20;0.60;;;0.52;;
16179;SDS011;8196;49.428;10.906;2022-09-09T16:13:48;0.90;;;0.70;;
16179;SDS011;8196;49.428;10.906;2022-09-09T16:16:18;0.95;;;0.57;;
16179;SDS011;8196;49.428;10.906;2022-09-09T16:18:49;0.63;;;0.60;;
16179;SDS011;8196;49.428;10.906;2022-09-09T16:21:19;1.05;;;0.70;;
16179;SDS011;8196;49.428;10.906;2022-09-09T16:23:47;0.93;;;0.70;;
16179;SDS011;8196;49.428;10.906;2022-09-09T16:26:16;0.50;;;0.50;;
16179;SDS011;8196;49.428;10.906;2022-09-09T16:28:43;1.75;;;0.60;;
16179;SDS011;8196;49.428;10.906;2022-09-09T16:31:13;0.85;;;0.50;;
16179;SDS011;8196;49.428;10.906;2022-09-09T16:33:41;1.60;;;0.77;;
16179;SDS011;8196;49.428;10.906;2022-09-09T16:36:09;1.52;;;0.70;;
16179;SDS011;8196;49.428;10.906;2022-09-09T16:38:37;1.20;;;0.60;;
16179;SDS011;8196;49.428;10.906;2022-09-09T16:41:05;1.40;;;0.60;;
16179;SDS011;8196;49.428;10.906;2022-09-09T16:43:32;1.38;;;0.80;;
16179;SDS011;8196;49.428;10.906;2022-09-09T16:46:00;1.55;;;0.70;;
16179;SDS011;8196;49.428;10.906;2022-09-09T16:48:31;2.00;;;0.57;;
16179;SDS011;8196;49.428;10.906;2022-09-09T16:51:01;2.00;;;0.63;;
16179;SDS011;8196;49.428;10.906;2022-09-09T16:53:28;2.40;;;0.70;;
16179;SDS011;8196;49.428;10.906;2022-09-09T16:55:55;0.85;;;0.50;;
16179;SDS011;8196;49.428;10.906;2022-09-09T16:58:23;3.58;;;0.77;;